sensor_id;sensor_type;location;lat;lon;timestamp;P1;durP1;ratioP1;P2;durP2;ratioP2
23230;SDS011;11784;49.818;8.632;2024-01-15T00:01:16;33.85;;;11.45;;
23230;SDS011;11784;49.818;8.632;2024-01-15T00:03:42;32.30;;;10.63;;
23230;SDS011;11784;49.818;8.632;2024-01-15T00:06:08;38.40;;;12.68;;
23230;SDS011;11784;49.818;8.632;2024-01-15T00:08:34;31.95;;;11.50;;
23230;SDS011;11784;49.818;8.632;2024-01-15T00:11:00;32.78;;;11.18;;
23230;SDS011;11784;49.818;8.632;2024-01-15T00:13:26;33.25;;;11.85;;
23230;SDS011;11784;49.818;8.632;2024-01-15T00:15:52;29.70;;;10.52;;
23230;SDS011;11784;49.818;8.632;2024-01-15T00:18:18;31.65;;;11.00;;
23230;SDS011;11784;49.818;8.632;2024-01-15T00:20:44;28.42;;;10.50;;
23230;SDS011;11784;49.818;8.632;2024-01-15T00:23:10;26.88;;;9.82;;
23230;SDS011;11784;49.818;8.632;2024-01-15T00:25:35;28.45;;;10.15;;
23230;SDS011;11784;49.818;8.632;2024-01-15T00:28:01;32.80;;;10.48;;
23230;SDS011;11784;49.818;8.632;2024-01-15T00:30:28;29.95;;;10.55;;
23230;SDS011;11784;49.818;8.632;2024-01-15T00:32:53;27.38;;;9.32;;
23230;SDS011;11784;49.818;8.632;2024-01-15T00:35:19;27.20;;;8.63;;
23230;SDS011;11784;49.818;8.632;2024-01-15T00:37:45;26.33;;;8.52;;
23230;SDS011;11784;49.818;8.632;2024-01-15T00:40:11;24.92;;;8.88;;
23230;SDS011;11784;49.818;8.632;2024-01-15T00:42:37;33.85;;;10.25;;
23230;SDS011;11784;49.818;8.632;2024-01-15T00:45:03;24.70;;;9.68;;
23230;SDS011;11784;49.818;8.632;2024-01-15T00:47:31;26.63;;;10.40;;
23230;SDS011;11784;49.818;8.632;2024-01-15T00:49:57;26.70;;;9.18;;
23230;SDS011;11784;49.818;8.632;2024-01-15T00:52:23;27.95;;;9.52;;
23230;SDS011;11784;49.818;8.632;2024-01-15T00:54:49;24.42;;;9.45;;
23230;SDS011;11784;49.818;8.632;2024-01-15T00:57:15;23.95;;;9.88;;
23230;SDS011;11784;49.818;8.632;2024-01-15T00:59:41;26.48;;;10.55;;
23230;SDS011;11784;49.818;8.632;2024-01-15T01:02:07;25.70;;;9.63;;
23230;SDS011;11784;49.818;8.632;2024-01-15T01:04:33;26.85;;;10.60;;
23230;SDS011;11784;49.818;8.632;2024-01-15T01:06:59;26.63;;;10.13;;
23230;SDS011;11784;49.818;8.632;2024-01-15T01:09:24;23.77;;;10.18;;
23230;SDS011;11784;49.818;8.632;2024-01-15T01:11:54;28.23;;;9.57;;
23230;SDS011;11784;49.818;8.632;2024-01-15T01:14:20;22.60;;;9.07;;
23230;SDS011;11784;49.818;8.632;2024-01-15T01:16:45;25.45;;;9.95;;
23230;SDS011;11784;49.818;8.632;2024-01-15T01:19:12;23.58;;;9.02;;
23230;SDS011;11784;49.818;8.632;2024-01-15T01:21:38;27.17;;;9.43;;
23230;SDS011;11784;49.818;8.632;2024-01-15T01:24:04;26.25;;;9.23;;
23230;SDS011;11784;49.818;8.632;2024-01-15T01:26:30;25.95;;;9.30;;
23230;SDS011;11784;49.818;8.632;2024-01-15T01:28:56;24.30;;;8.82;;
23230;SDS011;11784;49.818;8.632;2024-01-15T01:31:23;26.88;;;10.05;;
23230;SDS011;11784;49.818;8.632;2024-01-15T01:33:49;21.58;;;8.13;;
23230;SDS011;11784;49.818;8.632;2024-01-15T01:36:15;27.38;;;10.05;;
23230;SDS011;11784;49.818;8.632;2024-01-15T01:38:41;23.73;;;9.20;;
23230;SDS011;11784;49.818;8.632;2024-01-15T01:41:07;19.05;;;8.10;;
23230;SDS011;11784;49.818;8.632;2024-01-15T01:43:33;21.55;;;8.68;;
23230;SDS011;11784;49.818;8.632;2024-01-15T01:46:00;22.40;;;8.85;;
23230;SDS011;11784;49.818;8.632;2024-01-15T01:48:26;19.15;;;7.82;;
23230;SDS011;11784;49.818;8.632;2024-01-15T01:50:53;22.48;;;8.23;;
23230;SDS011;11784;49.818;8.632;2024-01-15T01:53:20;24.73;;;8.93;;
23230;SDS011;11784;49.818;8.632;2024-01-15T01:55:46;19.65;;;8.48;;
23230;SDS011;11784;49.818;8.632;2024-01-15T01:58:13;24.23;;;8.07;;
23230;SDS011;11784;49.818;8.632;2024-01-15T02:00:40;21.42;;;8.18;;
23230;SDS011;11784;49.818;8.632;2024-01-15T02:03:06;23.83;;;9.05;;
23230;SDS011;11784;49.818;8.632;2024-01-15T02:05:32;21.27;;;8.38;;
23230;SDS011;11784;49.818;8.632;2024-01-15T02:07:58;20.58;;;8.23;;
23230;SDS011;11784;49.818;8.632;2024-01-15T02:10:24;20.63;;;8.07;;
23230;SDS011;11784;49.818;8.632;2024-01-15T02:12:50;23.08;;;8.55;;
23230;SDS011;11784;49.818;8.632;2024-01-15T02:15:16;24.17;;;8.90;;
23230;SDS011;11784;49.818;8.632;2024-01-15T02:18:01;22.75;;;9.07;;
23230;SDS011;11784;49.818;8.632;2024-01-15T02:20:27;21.70;;;7.95;;
23230;SDS011;11784;49.818;8.632;2024-01-15T02:22:54;27.48;;;8.23;;
23230;SDS011;11784;49.818;8.632;2024-01-15T02:25:20;23.55;;;8.32;;
23230;SDS011;11784;49.818;8.632;2024-01-15T02:27:46;25.13;;;8.68;;
23230;SDS011;11784;49.818;8.632;2024-01-15T02:30:12;24.23;;;8.88;;
23230;SDS011;11784;49.818;8.632;2024-01-15T02:32:38;27.83;;;9.10;;
23230;SDS011;11784;49.818;8.632;2024-01-15T02:35:04;21.70;;;8.45;;
23230;SDS011;11784;49.818;8.632;2024-01-15T02:37:30;18.50;;;7.75;;
23230;SDS011;11784;49.818;8.632;2024-01-15T02:39:56;19.38;;;8.32;;
23230;SDS011;11784;49.818;8.632;2024-01-15T02:42:22;32.10;;;8.77;;
23230;SDS011;11784;49.818;8.632;2024-01-15T02:44:48;22.95;;;7.80;;
23230;SDS011;11784;49.818;8.632;2024-01-15T02:47:14;22.95;;;8.50;;
23230;SDS011;11784;49.818;8.632;2024-01-15T02:49:40;20.20;;;6.97;;
23230;SDS011;11784;49.818;8.632;2024-01-15T02:52:06;24.38;;;8.23;;
23230;SDS011;11784;49.818;8.632;2024-01-15T02:54:32;25.30;;;8.35;;
23230;SDS011;11784;49.818;8.632;2024-01-15T02:56:58;22.73;;;8.25;;
23230;SDS011;11784;49.818;8.632;2024-01-15T02:59:24;16.30;;;7.20;;
23230;SDS011;11784;49.818;8.632;2024-01-15T03:01:50;22.08;;;8.23;;
23230;SDS011;11784;49.818;8.632;2024-01-15T03:04:16;21.73;;;8.52;;
23230;SDS011;11784;49.818;8.632;2024-01-15T03:06:42;23.80;;;7.95;;
23230;SDS011;11784;49.818;8.632;2024-01-15T03:09:08;17.95;;;7.25;;
23230;SDS011;11784;49.818;8.632;2024-01-15T03:11:40;19.38;;;7.82;;
23230;SDS011;11784;49.818;8.632;2024-01-15T03:14:06;23.40;;;7.63;;
23230;SDS011;11784;49.818;8.632;2024-01-15T03:16:32;19.02;;;7.28;;
23230;SDS011;11784;49.818;8.632;2024-01-15T03:18:58;19.92;;;8.13;;
23230;SDS011;11784;49.818;8.632;2024-01-15T03:21:24;24.45;;;8.50;;
23230;SDS011;11784;49.818;8.632;2024-01-15T03:23:50;21.38;;;8.20;;
23230;SDS011;11784;49.818;8.632;2024-01-15T03:26:16;21.50;;;9.05;;
23230;SDS011;11784;49.818;8.632;2024-01-15T03:28:41;17.33;;;8.13;;
23230;SDS011;11784;49.818;8.632;2024-01-15T03:31:07;22.33;;;8.45;;
23230;SDS011;11784;49.818;8.632;2024-01-15T03:33:33;24.25;;;8.82;;
23230;SDS011;11784;49.818;8.632;2024-01-15T03:35:59;22.67;;;8.02;;
23230;SDS011;11784;49.818;8.632;2024-01-15T03:38:27;23.10;;;9.02;;
23230;SDS011;11784;49.818;8.632;2024-01-15T03:40:53;21.05;;;8.25;;
23230;SDS011;11784;49.818;8.632;2024-01-15T03:43:19;23.50;;;7.53;;
23230;SDS011;11784;49.818;8.632;2024-01-15T03:45:45;20.40;;;8.05;;
23230;SDS011;11784;49.818;8.632;2024-01-15T03:48:11;19.92;;;7.65;;
23230;SDS011;11784;49.818;8.632;2024-01-15T03:50:37;20.65;;;7.70;;
23230;SDS011;11784;49.818;8.632;2024-01-15T03:53:03;19.48;;;7.90;;
23230;SDS011;11784;49.818;8.632;2024-01-15T03:55:29;25.95;;;8.73;;
23230;SDS011;11784;49.818;8.632;2024-01-15T03:57:55;24.10;;;7.97;;
23230;SDS011;11784;49.818;8.632;2024-01-15T04:00:22;23.58;;;8.32;;
23230;SDS011;11784;49.818;8.632;2024-01-15T04:02:48;20.02;;;7.85;;
23230;SDS011;11784;49.818;8.632;2024-01-15T04:05:14;17.23;;;7.00;;
23230;SDS011;11784;49.818;8.632;2024-01-15T04:07:40;23.63;;;8.38;;
23230;SDS011;11784;49.818;8.632;2024-01-15T04:10:05;20.63;;;7.93;;
23230;SDS011;11784;49.818;8.632;2024-01-15T04:12:32;24.33;;;8.38;;
23230;SDS011;11784;49.818;8.632;2024-01-15T04:14:57;25.05;;;8.98;;
23230;SDS011;11784;49.818;8.632;2024-01-15T04:17:23;20.38;;;7.80;;
23230;SDS011;11784;49.818;8.632;2024-01-15T04:19:49;21.55;;;7.65;;
23230;SDS011;11784;49.818;8.632;2024-01-15T04:22:15;21.95;;;7.90;;
23230;SDS011;11784;49.818;8.632;2024-01-15T04:24:41;19.25;;;7.70;;
23230;SDS011;11784;49.818;8.632;2024-01-15T04:27:07;23.38;;;7.32;;
23230;SDS011;11784;49.818;8.632;2024-01-15T04:29:33;20.92;;;7.55;;
23230;SDS011;11784;49.818;8.632;2024-01-15T04:31:59;24.10;;;8.35;;
23230;SDS011;11784;49.818;8.632;2024-01-15T04:34:25;17.98;;;7.95;;
23230;SDS011;11784;49.818;8.632;2024-01-15T04:36:51;23.17;;;7.90;;
23230;SDS011;11784;49.818;8.632;2024-01-15T04:39:17;22.17;;;7.13;;
23230;SDS011;11784;49.818;8.632;2024-01-15T04:41:43;20.83;;;6.95;;
23230;SDS011;11784;49.818;8.632;2024-01-15T04:44:09;22.45;;;7.75;;
23230;SDS011;11784;49.818;8.632;2024-01-15T04:46:34;16.33;;;6.75;;
23230;SDS011;11784;49.818;8.632;2024-01-15T04:49:00;18.92;;;8.60;;
23230;SDS011;11784;49.818;8.632;2024-01-15T04:51:27;21.08;;;7.68;;
23230;SDS011;11784;49.818;8.632;2024-01-15T04:53:53;17.08;;;6.93;;
23230;SDS011;11784;49.818;8.632;2024-01-15T04:56:19;22.48;;;7.32;;
23230;SDS011;11784;49.818;8.632;2024-01-15T04:58:45;19.42;;;7.93;;
23230;SDS011;11784;49.818;8.632;2024-01-15T05:01:11;18.83;;;7.50;;
23230;SDS011;11784;49.818;8.632;2024-01-15T05:03:37;15.48;;;6.97;;
23230;SDS011;11784;49.818;8.632;2024-01-15T05:06:04;23.88;;;8.20;;
23230;SDS011;11784;49.818;8.632;2024-01-15T05:08:30;19.73;;;7.78;;
23230;SDS011;11784;49.818;8.632;2024-01-15T05:10:56;22.90;;;7.55;;
23230;SDS011;11784;49.818;8.632;2024-01-15T05:13:22;19.08;;;7.07;;
23230;SDS011;11784;49.818;8.632;2024-01-15T05:15:48;25.15;;;7.32;;
23230;SDS011;11784;49.818;8.632;2024-01-15T05:18:14;22.00;;;7.55;;
23230;SDS011;11784;49.818;8.632;2024-01-15T05:20:40;16.08;;;7.22;;
23230;SDS011;11784;49.818;8.632;2024-01-15T05:23:07;23.08;;;7.72;;
23230;SDS011;11784;49.818;8.632;2024-01-15T05:25:33;29.98;;;9.02;;
23230;SDS011;11784;49.818;8.632;2024-01-15T05:27:59;19.73;;;7.10;;
23230;SDS011;11784;49.818;8.632;2024-01-15T05:30:25;18.58;;;6.60;;
23230;SDS011;11784;49.818;8.632;2024-01-15T05:32:51;22.13;;;7.20;;
23230;SDS011;11784;49.818;8.632;2024-01-15T05:35:17;19.38;;;8.15;;
23230;SDS011;11784;49.818;8.632;2024-01-15T05:37:43;23.08;;;8.00;;
23230;SDS011;11784;49.818;8.632;2024-01-15T05:40:10;21.65;;;7.57;;
23230;SDS011;11784;49.818;8.632;2024-01-15T05:42:37;20.48;;;7.47;;
23230;SDS011;11784;49.818;8.632;2024-01-15T05:45:03;20.55;;;7.07;;
23230;SDS011;11784;49.818;8.632;2024-01-15T05:47:30;20.00;;;7.40;;
23230;SDS011;11784;49.818;8.632;2024-01-15T05:49:56;17.85;;;7.13;;
23230;SDS011;11784;49.818;8.632;2024-01-15T05:52:22;20.98;;;7.95;;
23230;SDS011;11784;49.818;8.632;2024-01-15T05:54:49;19.13;;;7.68;;
23230;SDS011;11784;49.818;8.632;2024-01-15T05:57:15;21.38;;;7.75;;
23230;SDS011;11784;49.818;8.632;2024-01-15T05:59:42;19.08;;;7.18;;
23230;SDS011;11784;49.818;8.632;2024-01-15T06:02:08;23.05;;;7.05;;
23230;SDS011;11784;49.818;8.632;2024-01-15T06:04:34;18.63;;;6.97;;
23230;SDS011;11784;49.818;8.632;2024-01-15T06:07:00;23.15;;;8.40;;
23230;SDS011;11784;49.818;8.632;2024-01-15T06:09:26;19.08;;;6.93;;
23230;SDS011;11784;49.818;8.632;2024-01-15T06:11:53;17.92;;;7.38;;
23230;SDS011;11784;49.818;8.632;2024-01-15T06:14:18;19.88;;;7.88;;
23230;SDS011;11784;49.818;8.632;2024-01-15T06:16:44;17.85;;;7.20;;
23230;SDS011;11784;49.818;8.632;2024-01-15T06:19:10;20.58;;;7.22;;
23230;SDS011;11784;49.818;8.632;2024-01-15T06:21:36;18.83;;;7.40;;
23230;SDS011;11784;49.818;8.632;2024-01-15T06:24:02;20.02;;;7.18;;
23230;SDS011;11784;49.818;8.632;2024-01-15T06:26:28;20.13;;;7.22;;
23230;SDS011;11784;49.818;8.632;2024-01-15T06:28:54;20.45;;;6.85;;
23230;SDS011;11784;49.818;8.632;2024-01-15T06:31:20;18.58;;;6.60;;
23230;SDS011;11784;49.818;8.632;2024-01-15T06:33:46;19.67;;;7.20;;
23230;SDS011;11784;49.818;8.632;2024-01-15T06:36:13;17.38;;;7.03;;
23230;SDS011;11784;49.818;8.632;2024-01-15T06:38:39;17.35;;;6.57;;
23230;SDS011;11784;49.818;8.632;2024-01-15T06:41:05;18.15;;;6.53;;
23230;SDS011;11784;49.818;8.632;2024-01-15T06:43:31;15.20;;;6.47;;
23230;SDS011;11784;49.818;8.632;2024-01-15T06:45:57;16.00;;;6.53;;
23230;SDS011;11784;49.818;8.632;2024-01-15T06:48:23;18.55;;;7.63;;
23230;SDS011;11784;49.818;8.632;2024-01-15T06:50:49;17.33;;;6.45;;
23230;SDS011;11784;49.818;8.632;2024-01-15T06:53:15;18.83;;;6.47;;
23230;SDS011;11784;49.818;8.632;2024-01-15T06:55:41;17.17;;;7.25;;
23230;SDS011;11784;49.818;8.632;2024-01-15T06:58:07;18.10;;;7.65;;
23230;SDS011;11784;49.818;8.632;2024-01-15T07:00:33;18.58;;;6.95;;
23230;SDS011;11784;49.818;8.632;2024-01-15T07:02:59;14.98;;;7.07;;
23230;SDS011;11784;49.818;8.632;2024-01-15T07:05:25;17.95;;;7.22;;
23230;SDS011;11784;49.818;8.632;2024-01-15T07:07:51;16.70;;;6.82;;
23230;SDS011;11784;49.818;8.632;2024-01-15T07:10:17;19.48;;;7.03;;
23230;SDS011;11784;49.818;8.632;2024-01-15T07:12:43;18.45;;;7.70;;
23230;SDS011;11784;49.818;8.632;2024-01-15T07:15:09;22.05;;;7.93;;
23230;SDS011;11784;49.818;8.632;2024-01-15T07:17:35;15.77;;;6.38;;
23230;SDS011;11784;49.818;8.632;2024-01-15T07:20:04;19.45;;;7.40;;
23230;SDS011;11784;49.818;8.632;2024-01-15T07:22:32;15.93;;;6.97;;
23230;SDS011;11784;49.818;8.632;2024-01-15T07:24:58;20.17;;;7.70;;
23230;SDS011;11784;49.818;8.632;2024-01-15T07:27:24;20.13;;;7.20;;
23230;SDS011;11784;49.818;8.632;2024-01-15T07:29:50;16.65;;;7.55;;
23230;SDS011;11784;49.818;8.632;2024-01-15T07:32:17;16.58;;;7.22;;
23230;SDS011;11784;49.818;8.632;2024-01-15T07:34:43;20.55;;;7.90;;
23230;SDS011;11784;49.818;8.632;2024-01-15T07:37:09;21.38;;;7.70;;
23230;SDS011;11784;49.818;8.632;2024-01-15T07:39:35;18.70;;;7.82;;
23230;SDS011;11784;49.818;8.632;2024-01-15T07:42:01;14.68;;;7.35;;
23230;SDS011;11784;49.818;8.632;2024-01-15T07:44:27;20.85;;;7.85;;
23230;SDS011;11784;49.818;8.632;2024-01-15T07:46:53;22.38;;;8.48;;
23230;SDS011;11784;49.818;8.632;2024-01-15T07:49:19;22.13;;;8.05;;
23230;SDS011;11784;49.818;8.632;2024-01-15T07:51:45;22.80;;;8.45;;
23230;SDS011;11784;49.818;8.632;2024-01-15T07:54:11;17.55;;;7.00;;
23230;SDS011;11784;49.818;8.632;2024-01-15T07:59:38;15.88;;;6.43;;
23230;SDS011;11784;49.818;8.632;2024-01-15T08:02:05;19.65;;;8.02;;
23230;SDS011;11784;49.818;8.632;2024-01-15T08:04:31;23.73;;;7.60;;
23230;SDS011;11784;49.818;8.632;2024-01-15T08:06:57;20.33;;;7.45;;
23230;SDS011;11784;49.818;8.632;2024-01-15T08:09:23;20.42;;;8.13;;
23230;SDS011;11784;49.818;8.632;2024-01-15T08:11:49;16.45;;;7.22;;
23230;SDS011;11784;49.818;8.632;2024-01-15T08:14:15;18.65;;;6.95;;
23230;SDS011;11784;49.818;8.632;2024-01-15T08:16:41;19.75;;;8.20;;
23230;SDS011;11784;49.818;8.632;2024-01-15T08:19:08;20.48;;;7.65;;
23230;SDS011;11784;49.818;8.632;2024-01-15T08:21:34;17.45;;;7.45;;
23230;SDS011;11784;49.818;8.632;2024-01-15T08:24:01;17.88;;;7.55;;
23230;SDS011;11784;49.818;8.632;2024-01-15T08:26:27;17.08;;;7.63;;
23230;SDS011;11784;49.818;8.632;2024-01-15T08:28:53;19.58;;;7.75;;
23230;SDS011;11784;49.818;8.632;2024-01-15T08:31:19;17.75;;;7.53;;
23230;SDS011;11784;49.818;8.632;2024-01-15T08:33:45;14.50;;;6.63;;
23230;SDS011;11784;49.818;8.632;2024-01-15T08:36:11;18.15;;;8.38;;
23230;SDS011;11784;49.818;8.632;2024-01-15T08:38:37;19.25;;;7.18;;
23230;SDS011;11784;49.818;8.632;2024-01-15T08:41:03;19.65;;;7.88;;
23230;SDS011;11784;49.818;8.632;2024-01-15T08:43:29;19.33;;;6.97;;
23230;SDS011;11784;49.818;8.632;2024-01-15T08:45:56;20.75;;;7.80;;
23230;SDS011;11784;49.818;8.632;2024-01-15T08:48:22;16.52;;;7.05;;
23230;SDS011;11784;49.818;8.632;2024-01-15T08:50:48;18.23;;;8.20;;
23230;SDS011;11784;49.818;8.632;2024-01-15T08:53:14;21.13;;;8.88;;
23230;SDS011;11784;49.818;8.632;2024-01-15T08:55:40;21.45;;;8.18;;
23230;SDS011;11784;49.818;8.632;2024-01-15T08:58:09;19.48;;;8.00;;
23230;SDS011;11784;49.818;8.632;2024-01-15T09:00:35;18.10;;;7.28;;
23230;SDS011;11784;49.818;8.632;2024-01-15T09:03:01;16.30;;;6.93;;
23230;SDS011;11784;49.818;8.632;2024-01-15T09:05:27;20.15;;;7.75;;
23230;SDS011;11784;49.818;8.632;2024-01-15T09:07:53;22.23;;;7.70;;
23230;SDS011;11784;49.818;8.632;2024-01-15T09:10:19;19.52;;;8.07;;
23230;SDS011;11784;49.818;8.632;2024-01-15T09:12:45;17.55;;;8.23;;
23230;SDS011;11784;49.818;8.632;2024-01-15T09:15:11;15.43;;;7.15;;
23230;SDS011;11784;49.818;8.632;2024-01-15T09:17:37;20.50;;;8.70;;
23230;SDS011;11784;49.818;8.632;2024-01-15T09:20:03;16.48;;;7.88;;
23230;SDS011;11784;49.818;8.632;2024-01-15T09:22:30;20.88;;;8.65;;
23230;SDS011;11784;49.818;8.632;2024-01-15T09:24:56;19.95;;;8.40;;
23230;SDS011;11784;49.818;8.632;2024-01-15T09:27:22;19.58;;;7.45;;
23230;SDS011;11784;49.818;8.632;2024-01-15T09:29:51;20.17;;;7.90;;
23230;SDS011;11784;49.818;8.632;2024-01-15T09:32:16;21.92;;;7.90;;
23230;SDS011;11784;49.818;8.632;2024-01-15T09:34:43;21.15;;;8.30;;
23230;SDS011;11784;49.818;8.632;2024-01-15T09:37:10;21.88;;;8.80;;
23230;SDS011;11784;49.818;8.632;2024-01-15T09:39:35;18.08;;;7.57;;
23230;SDS011;11784;49.818;8.632;2024-01-15T09:42:01;21.42;;;7.93;;
23230;SDS011;11784;49.818;8.632;2024-01-15T09:44:27;16.15;;;7.85;;
23230;SDS011;11784;49.818;8.632;2024-01-15T09:46:55;24.80;;;8.63;;
23230;SDS011;11784;49.818;8.632;2024-01-15T09:49:21;19.40;;;8.13;;
23230;SDS011;11784;49.818;8.632;2024-01-15T09:51:48;13.82;;;7.30;;
23230;SDS011;11784;49.818;8.632;2024-01-15T09:54:14;16.90;;;7.35;;
23230;SDS011;11784;49.818;8.632;2024-01-15T09:56:42;18.30;;;7.70;;
23230;SDS011;11784;49.818;8.632;2024-01-15T09:59:10;18.70;;;8.40;;
23230;SDS011;11784;49.818;8.632;2024-01-15T10:01:37;16.60;;;7.25;;
23230;SDS011;11784;49.818;8.632;2024-01-15T10:04:03;15.90;;;7.20;;
23230;SDS011;11784;49.818;8.632;2024-01-15T10:06:29;18.08;;;8.10;;
23230;SDS011;11784;49.818;8.632;2024-01-15T10:08:56;17.92;;;7.53;;
23230;SDS011;11784;49.818;8.632;2024-01-15T10:11:25;16.98;;;7.40;;
23230;SDS011;11784;49.818;8.632;2024-01-15T10:13:51;18.20;;;7.68;;
23230;SDS011;11784;49.818;8.632;2024-01-15T10:16:21;16.98;;;7.43;;
23230;SDS011;11784;49.818;8.632;2024-01-15T10:18:47;19.88;;;8.30;;
23230;SDS011;11784;49.818;8.632;2024-01-15T10:21:13;17.90;;;8.07;;
23230;SDS011;11784;49.818;8.632;2024-01-15T10:23:40;19.15;;;7.28;;
23230;SDS011;11784;49.818;8.632;2024-01-15T10:26:06;17.38;;;8.13;;
23230;SDS011;11784;49.818;8.632;2024-01-15T10:28:32;16.85;;;7.00;;
23230;SDS011;11784;49.818;8.632;2024-01-15T10:30:58;20.55;;;7.88;;
23230;SDS011;11784;49.818;8.632;2024-01-15T10:33:24;13.70;;;6.75;;
23230;SDS011;11784;49.818;8.632;2024-01-15T10:35:53;16.90;;;7.57;;
23230;SDS011;11784;49.818;8.632;2024-01-15T10:38:20;19.90;;;8.15;;
23230;SDS011;11784;49.818;8.632;2024-01-15T10:40:47;14.80;;;7.05;;
23230;SDS011;11784;49.818;8.632;2024-01-15T10:43:13;17.42;;;7.28;;
23230;SDS011;11784;49.818;8.632;2024-01-15T10:45:39;17.17;;;7.43;;
23230;SDS011;11784;49.818;8.632;2024-01-15T10:48:05;15.88;;;7.07;;
23230;SDS011;11784;49.818;8.632;2024-01-15T10:50:31;17.92;;;7.90;;
23230;SDS011;11784;49.818;8.632;2024-01-15T10:52:57;17.15;;;6.85;;
23230;SDS011;11784;49.818;8.632;2024-01-15T10:55:23;16.23;;;6.80;;
23230;SDS011;11784;49.818;8.632;2024-01-15T10:57:49;15.23;;;6.90;;
23230;SDS011;11784;49.818;8.632;2024-01-15T11:00:16;18.05;;;8.45;;
23230;SDS011;11784;49.818;8.632;2024-01-15T11:02:42;14.60;;;6.95;;
23230;SDS011;11784;49.818;8.632;2024-01-15T11:05:09;15.75;;;8.15;;
23230;SDS011;11784;49.818;8.632;2024-01-15T11:07:35;19.63;;;8.02;;
23230;SDS011;11784;49.818;8.632;2024-01-15T11:10:04;18.95;;;7.45;;
23230;SDS011;11784;49.818;8.632;2024-01-15T11:12:30;21.55;;;8.18;;
23230;SDS011;11784;49.818;8.632;2024-01-15T11:15:03;21.60;;;7.78;;
23230;SDS011;11784;49.818;8.632;2024-01-15T11:17:31;14.32;;;7.05;;
23230;SDS011;11784;49.818;8.632;2024-01-15T11:20:15;16.08;;;6.88;;
23230;SDS011;11784;49.818;8.632;2024-01-15T11:22:47;15.05;;;6.28;;
23230;SDS011;11784;49.818;8.632;2024-01-15T11:25:14;11.65;;;6.07;;
23230;SDS011;11784;49.818;8.632;2024-01-15T11:30:10;13.48;;;6.05;;
23230;SDS011;11784;49.818;8.632;2024-01-15T11:32:36;15.40;;;6.90;;
23230;SDS011;11784;49.818;8.632;2024-01-15T11:35:06;14.95;;;6.35;;
23230;SDS011;11784;49.818;8.632;2024-01-15T11:40:38;12.50;;;5.68;;
23230;SDS011;11784;49.818;8.632;2024-01-15T11:43:04;10.15;;;5.43;;
23230;SDS011;11784;49.818;8.632;2024-01-15T11:45:31;14.75;;;6.07;;
23230;SDS011;11784;49.818;8.632;2024-01-15T11:50:24;12.88;;;5.95;;
23230;SDS011;11784;49.818;8.632;2024-01-15T11:52:59;16.05;;;6.15;;
23230;SDS011;11784;49.818;8.632;2024-01-15T11:55:37;11.60;;;5.40;;
23230;SDS011;11784;49.818;8.632;2024-01-15T11:58:07;12.60;;;5.68;;
23230;SDS011;11784;49.818;8.632;2024-01-15T12:00:34;12.77;;;5.97;;
23230;SDS011;11784;49.818;8.632;2024-01-15T12:03:00;12.18;;;6.10;;
23230;SDS011;11784;49.818;8.632;2024-01-15T12:05:27;12.00;;;5.85;;
23230;SDS011;11784;49.818;8.632;2024-01-15T12:07:53;10.25;;;4.85;;
23230;SDS011;11784;49.818;8.632;2024-01-15T12:10:20;10.35;;;5.60;;
23230;SDS011;11784;49.818;8.632;2024-01-15T12:12:49;12.73;;;5.78;;
23230;SDS011;11784;49.818;8.632;2024-01-15T12:15:20;12.77;;;4.97;;
23230;SDS011;11784;49.818;8.632;2024-01-15T12:17:46;11.82;;;5.85;;
23230;SDS011;11784;49.818;8.632;2024-01-15T12:20:12;11.07;;;5.25;;
23230;SDS011;11784;49.818;8.632;2024-01-15T12:22:38;13.10;;;6.30;;
23230;SDS011;11784;49.818;8.632;2024-01-15T12:25:04;11.10;;;5.60;;
23230;SDS011;11784;49.818;8.632;2024-01-15T12:27:30;12.48;;;5.18;;
23230;SDS011;11784;49.818;8.632;2024-01-15T12:29:58;11.27;;;6.03;;
23230;SDS011;11784;49.818;8.632;2024-01-15T12:32:24;11.48;;;6.00;;
23230;SDS011;11784;49.818;8.632;2024-01-15T12:34:50;17.52;;;5.68;;
23230;SDS011;11784;49.818;8.632;2024-01-15T12:37:19;13.23;;;6.00;;
23230;SDS011;11784;49.818;8.632;2024-01-15T12:39:45;12.90;;;6.38;;
23230;SDS011;11784;49.818;8.632;2024-01-15T12:42:13;14.63;;;6.95;;
23230;SDS011;11784;49.818;8.632;2024-01-15T12:44:39;12.27;;;5.93;;
23230;SDS011;11784;49.818;8.632;2024-01-15T12:47:06;10.20;;;5.72;;
23230;SDS011;11784;49.818;8.632;2024-01-15T12:49:32;14.77;;;6.18;;
23230;SDS011;11784;49.818;8.632;2024-01-15T12:51:58;9.77;;;5.28;;
23230;SDS011;11784;49.818;8.632;2024-01-15T12:54:24;12.95;;;6.10;;
23230;SDS011;11784;49.818;8.632;2024-01-15T12:56:51;12.32;;;5.43;;
23230;SDS011;11784;49.818;8.632;2024-01-15T12:59:17;12.07;;;5.50;;
23230;SDS011;11784;49.818;8.632;2024-01-15T13:01:44;16.83;;;6.85;;
23230;SDS011;11784;49.818;8.632;2024-01-15T13:04:10;8.75;;;5.03;;
23230;SDS011;11784;49.818;8.632;2024-01-15T13:06:36;12.43;;;5.78;;
23230;SDS011;11784;49.818;8.632;2024-01-15T13:09:03;10.32;;;5.15;;
23230;SDS011;11784;49.818;8.632;2024-01-15T13:11:32;10.95;;;4.85;;
23230;SDS011;11784;49.818;8.632;2024-01-15T13:13:58;9.73;;;5.18;;
23230;SDS011;11784;49.818;8.632;2024-01-15T13:16:24;8.32;;;4.43;;
23230;SDS011;11784;49.818;8.632;2024-01-15T13:18:53;8.57;;;4.53;;
23230;SDS011;11784;49.818;8.632;2024-01-15T13:21:19;7.70;;;4.00;;
23230;SDS011;11784;49.818;8.632;2024-01-15T13:23:45;7.50;;;3.70;;
23230;SDS011;11784;49.818;8.632;2024-01-15T13:26:11;9.13;;;4.35;;
23230;SDS011;11784;49.818;8.632;2024-01-15T13:28:37;7.57;;;4.20;;
23230;SDS011;11784;49.818;8.632;2024-01-15T13:31:03;8.32;;;4.40;;
23230;SDS011;11784;49.818;8.632;2024-01-15T13:33:29;9.07;;;4.32;;
23230;SDS011;11784;49.818;8.632;2024-01-15T13:35:55;7.55;;;3.55;;
23230;SDS011;11784;49.818;8.632;2024-01-15T13:38:21;10.10;;;4.32;;
23230;SDS011;11784;49.818;8.632;2024-01-15T13:40:49;7.95;;;4.15;;
23230;SDS011;11784;49.818;8.632;2024-01-15T13:43:15;8.70;;;4.53;;
23230;SDS011;11784;49.818;8.632;2024-01-15T13:45:41;10.50;;;4.78;;
23230;SDS011;11784;49.818;8.632;2024-01-15T13:48:07;9.35;;;4.13;;
23230;SDS011;11784;49.818;8.632;2024-01-15T13:50:33;7.35;;;3.50;;
23230;SDS011;11784;49.818;8.632;2024-01-15T13:53:00;9.65;;;4.80;;
23230;SDS011;11784;49.818;8.632;2024-01-15T13:55:26;7.53;;;3.92;;
23230;SDS011;11784;49.818;8.632;2024-01-15T13:57:53;7.47;;;3.72;;
23230;SDS011;11784;49.818;8.632;2024-01-15T14:00:19;7.63;;;4.18;;
23230;SDS011;11784;49.818;8.632;2024-01-15T14:02:46;9.35;;;4.45;;
23230;SDS011;11784;49.818;8.632;2024-01-15T14:05:12;9.27;;;4.68;;
23230;SDS011;11784;49.818;8.632;2024-01-15T14:07:40;8.63;;;4.50;;
23230;SDS011;11784;49.818;8.632;2024-01-15T14:10:08;9.43;;;4.20;;
23230;SDS011;11784;49.818;8.632;2024-01-15T14:12:34;8.93;;;4.50;;
23230;SDS011;11784;49.818;8.632;2024-01-15T14:15:01;30.02;;;12.10;;
23230;SDS011;11784;49.818;8.632;2024-01-15T14:17:28;8.15;;;4.18;;
23230;SDS011;11784;49.818;8.632;2024-01-15T14:19:54;9.20;;;4.43;;
23230;SDS011;11784;49.818;8.632;2024-01-15T14:22:20;11.25;;;4.47;;
23230;SDS011;11784;49.818;8.632;2024-01-15T14:24:46;7.63;;;3.97;;
23230;SDS011;11784;49.818;8.632;2024-01-15T14:27:11;8.65;;;3.65;;
23230;SDS011;11784;49.818;8.632;2024-01-15T14:29:37;7.55;;;3.85;;
23230;SDS011;11784;49.818;8.632;2024-01-15T14:32:03;5.25;;;3.63;;
23230;SDS011;11784;49.818;8.632;2024-01-15T14:34:30;6.38;;;3.42;;
23230;SDS011;11784;49.818;8.632;2024-01-15T14:36:56;8.68;;;3.60;;
23230;SDS011;11784;49.818;8.632;2024-01-15T14:39:22;6.40;;;3.60;;
23230;SDS011;11784;49.818;8.632;2024-01-15T14:41:48;6.65;;;3.35;;